Bealeton, VA (22712)

11:45 PM EDT on July 28, 2015 (GMT -0400)
Ashley Glen | | Change Station
CLOSE
Current Station
Personal Weather Station
Location: Bealeton, VA
Elevation: 312 ft
Nearby Weather Stations

Elev 312 ft 38.56 °N, 77.79 °W | Updated 3 minutes ago

Clear
Clear
72.9 °F
Feels Like 72.9 °F
N
0.0
Wind Variable Wind from North
Gusts 0.0 mph

Today
High -- | Low -- °F
--% Chance of Precip.
Yesterday
High -- | Low -- °F
Precip. -- in
6:09 AM 8:25 PM
Waxing Gibbous, 93% visible
Pressure 30.01 in
Visibility 1.8 miles
Clouds
Dew Point 72 °F
Humidity 98%
Rainfall 0.59 in
Snow Depth Not available.
UV Not available.
Pollen 4.60 out of 12
Air Quality Not available.
Flu Activity Not available.
METAR KCJR 290330Z AUTO 00000KT 1 3/4SM BR VV007 22/22 A3001 RMK AO2 T02170216

More Conditions Fewer Conditions

Pressure 30.01 in
Visibility 1.8 miles
Clouds
Dew Point 72 °F
Humidity 98%
Rainfall 0.59 in
Snow Depth Not available.
UV Not available.
Pollen 4.60 out of 12
Air Quality Not available.
Flu Activity Not available.
METAR KCJR 290330Z AUTO 00000KT 1 3/4SM BR VV007 22/22 A3001 RMK AO2 T02170216

More Conditions Fewer Conditions

10-Day Weather Forecast

×

Almanac

Astronomy

Jul. 28, 2015 Rise Set
Actual Time
Civil Twilight
Nautical Twilight
Astronomical Twilight
Moon
Length of Visible Light
Length of Day
Tomorrow will be .
, % of the Moon is Illuminated

Today's Extremes

State Highs State Lows

Community

WunderPhotos

Upload Photos

1,842,025 photos uploaded!

WunderBlogs® & News

Nearby

Air Quality

  Air Quality AQ Index Pollutant
Not available.

Snow Depth

Station Depth Elevation

Earthquake Activity

City Distance Mag. Time & Date
Minimum magnitude displayed is 2.5.

Coastal Water Temperatures

Place Temperature

Stations

Nearby Weather Stations

Station Location Temp. Windchill Dew Point Humidity Wind Precip. Elev Updated Type